CheckWX is a tool to help pilots better visualize weather data.  It is not intended as a substitute for an official pre-flight weather briefing.

07:45:42 UTC

KHPN METAR
Westchester County Airport
White Plains, New York, USA
Current

50 mins ago

KHPN 180656Z 31004KT 10SM FEW024 12/10 A3017 RMK AO2 SLP214 T01220100
Observed
Sep-18 @ 06:56 UTC
Wind
  • 310° at 4 KTS
Visibility
10 SM
Flight Rules
VFR
Cloud Levels
  • Few at 2,400' AGL
Temperature
12°C / 54°F
Dewpoint
10°C / 50°F
Humidity
88%
Altimeter
30.17" Hg
Pressure
1021.72 hPa
Previous

2 hours ago

KHPN 180556Z 31004KT 10SM CLR 12/09 A3017 RMK AO2 SLP215 T01220094 10178 20122 51003
Observed
Sep-18 @ 05:56 UTC
Wind
  • 310° at 4 KTS
Visibility
10 SM
Flight Rules
VFR
Cloud Levels
  • Clear skies
Temperature
12°C / 54°F
Dewpoint
C / 48°F
Humidity
82%
Altimeter
30.17" Hg
Pressure
1021.72 hPa
Previous

3 hours ago

KHPN 180456Z 00000KT 10SM CLR 13/09 A3017 RMK AO2 SLP215 T01280089 402440122
Observed
Sep-18 @ 04:56 UTC
Visibility
10 SM
Flight Rules
VFR
Cloud Levels
  • Clear skies
Temperature
13°C / 55°F
Dewpoint
C / 48°F
Humidity
77%
Altimeter
30.17" Hg
Pressure
1021.72 hPa